Time;durP1;ratioP1;P1;durP2;ratioP2;P2;SDS_P1;SDS_P2;PMS_P1;PMS_P2;Temp;Humidity;BMP_temperature;BMP_pressure;BME280_temperature;BME280_humidity;BME280_pressure;Samples;Min_cycle;Max_cycle;Signal;HPM_P1;HPM_P2
2022/06/12 00:00:27;;;;;;;9.27;2.47;;;13.40;99.90;;;;;;6161671;23;20666;-90
2022/06/12 00:02:54;;;;;;;7.40;2.53;;;13.30;99.90;;;;;;6210844;23;20201;-89
2022/06/12 00:05:22;;;;;;;5.53;1.57;;;13.30;99.90;;;;;;6185003;23;20224;-90
2022/06/12 00:07:48;;;;;;;5.33;2.93;;;13.20;99.90;;;;;;6185379;23;20194;-89
2022/06/12 00:10:14;;;;;;;3.80;2.07;;;13.20;99.90;;;;;;6160575;23;20193;-90
2022/06/12 00:12:42;;;;;;;3.53;1.47;;;13.10;99.90;;;;;;6161222;23;20184;-89
2022/06/12 00:15:09;;;;;;;2.87;2.30;;;13.10;99.90;;;;;;6185366;23;20198;-89
2022/06/12 00:17:35;;;;;;;6.23;3.37;;;13.10;99.90;;;;;;6210043;23;20202;-90
2022/06/12 00:20:02;;;;;;;3.33;2.53;;;13.20;99.90;;;;;;6185048;23;20673;-90
2022/06/12 00:22:28;;;;;;;4.00;2.03;;;13.20;99.90;;;;;;6210010;23;20190;-90
2022/06/12 00:24:53;;;;;;;6.20;2.33;;;13.20;99.90;;;;;;6160125;23;20666;-90
2022/06/12 00:27:19;;;;;;;7.00;2.60;;;13.20;99.90;;;;;;6161300;23;20240;-90
2022/06/12 00:29:47;;;;;;;2.70;2.00;;;13.30;99.90;;;;;;6159606;23;20221;-91
2022/06/12 00:32:16;;;;;;;7.87;1.90;;;13.30;99.90;;;;;;6160698;23;20528;-90
2022/06/12 00:34:49;;;;;;;4.10;2.87;;;13.40;99.90;;;;;;6209223;23;20190;-90
2022/06/12 00:37:18;;;;;;;6.23;2.57;;;13.40;99.90;;;;;;6209737;23;20186;-91
2022/06/12 00:39:45;;;;;;;6.63;1.97;;;13.40;99.90;;;;;;6210540;23;20166;-90
2022/06/12 00:42:23;;;;;;;4.70;2.50;;;13.50;99.90;;;;;;6209369;23;20198;-90
2022/06/12 00:44:50;;;;;;;5.00;2.30;;;13.50;99.90;;;;;;6209425;23;20198;-91
2022/06/12 00:47:17;;;;;;;11.80;2.33;;;13.50;99.90;;;;;;6184967;23;20202;-90
2022/06/12 00:49:52;;;;;;;4.17;1.83;;;13.50;99.90;;;;;;6184842;23;20190;-90
2022/06/12 00:52:24;;;;;;;8.20;2.13;;;13.50;99.90;;;;;;6209883;23;20214;-90
2022/06/12 00:54:55;;;;;;;4.20;1.80;;;13.60;99.90;;;;;;6210430;23;20143;-90
2022/06/12 00:57:24;;;;;;;3.13;2.10;;;13.60;99.90;;;;;;6210361;23;20154;-90
2022/06/12 00:59:54;;;;;;;6.40;2.17;;;13.60;99.90;;;;;;6184596;23;20662;-89
2022/06/12 01:02:24;;;;;;;5.33;2.33;;;13.60;99.90;;;;;;6209565;23;20647;-90
2022/06/12 01:07:42;;;;;;;4.37;1.60;;;13.70;99.90;;;;;;6188523;23;20231;-91
2022/06/12 01:10:12;;;;;;;5.43;2.33;;;13.60;99.90;;;;;;6210137;23;20198;-91
2022/06/12 01:12:44;;;;;;;6.57;1.70;;;13.60;99.90;;;;;;6210663;23;20157;-92
2022/06/12 01:15:32;;;;;;;3.10;1.77;;;13.60;99.90;;;;;;6209619;23;20263;-91
2022/06/12 01:18:00;;;;;;;9.53;2.13;;;13.60;99.90;;;;;;6209772;23;20205;-91
2022/06/12 01:20:28;;;;;;;6.47;2.47;;;13.60;99.90;;;;;;6183623;23;20269;-91
2022/06/12 01:23:11;;;;;;;3.27;1.90;;;13.60;99.90;;;;;;6209788;23;20527;-91
2022/06/12 01:26:00;;;;;;;7.00;1.63;;;13.50;99.90;;;;;;6209573;23;20193;-90
2022/06/12 01:28:47;;;;;;;4.20;2.03;;;13.50;99.90;;;;;;6209098;23;20190;-90
2022/06/12 01:31:35;;;;;;;4.57;1.90;;;13.40;99.90;;;;;;6210699;23;20189;-90
2022/06/12 01:34:22;;;;;;;5.23;1.50;;;13.40;99.90;;;;;;6211405;23;20146;-90
2022/06/12 01:37:22;;;;;;;8.20;1.93;;;13.40;99.90;;;;;;6211676;23;20188;-91
2022/06/12 01:40:16;;;;;;;2.70;1.73;;;13.40;99.90;;;;;;6210740;23;20150;-93
2022/06/12 01:43:16;;;;;;;2.33;2.03;;;13.30;99.90;;;;;;6211626;23;20226;-92
2022/06/12 01:45:53;;;;;;;2.70;1.63;;;13.30;99.90;;;;;;6211705;23;20201;-93
2022/06/12 01:49:01;;;;;;;3.57;1.67;;;13.30;99.90;;;;;;6212328;23;20203;-93
2022/06/12 01:51:35;;;;;;;3.10;2.00;;;13.20;99.90;;;;;;6172194;23;20225;-93
2022/06/12 01:54:27;;;;;;;9.87;2.37;;;13.20;99.90;;;;;;6211298;23;20205;-92
2022/06/12 01:57:10;;;;;;;5.73;2.30;;;13.20;99.90;;;;;;6211288;23;20674;-94
2022/06/12 01:59:43;;;;;;;3.33;2.60;;;13.20;99.90;;;;;;6211801;23;20297;-92
2022/06/12 02:02:21;;;;;;;4.43;1.50;;;13.20;99.90;;;;;;6212259;23;20204;-91
2022/06/12 02:05:00;;;;;;;5.00;2.13;;;13.20;99.90;;;;;;6212607;23;20529;-92
2022/06/12 02:07:34;;;;;;;3.00;2.47;;;13.20;99.90;;;;;;6211937;23;20189;-92
2022/06/12 02:10:16;;;;;;;6.23;2.23;;;13.10;99.90;;;;;;6212353;23;20521;-92
2022/06/12 02:15:41;;;;;;;8.63;3.20;;;13.20;99.90;;;;;;6214079;23;20175;-92
2022/06/12 02:18:26;;;;;;;13.23;2.87;;;13.20;99.90;;;;;;6211669;23;20208;-90
2022/06/12 02:21:10;;;;;;;2.67;1.80;;;13.30;99.90;;;;;;6210960;23;20197;-92
2022/06/12 02:23:53;;;;;;;14.43;3.47;;;13.30;99.90;;;;;;6210970;23;20201;-92
2022/06/12 02:26:23;;;;;;;7.40;2.40;;;13.30;99.90;;;;;;6211605;23;20828;-93
2022/06/12 02:28:57;;;;;;;3.53;1.43;;;13.30;99.90;;;;;;6211667;23;20198;-93
2022/06/12 02:31:29;;;;;;;2.40;1.73;;;13.40;99.90;;;;;;6211410;23;20193;-93
2022/06/12 02:34:05;;;;;;;6.93;1.83;;;13.40;99.90;;;;;;6210880;23;20178;-92
2022/06/12 02:36:38;;;;;;;9.00;1.90;;;13.40;99.90;;;;;;6213337;23;20195;-93
2022/06/12 02:39:12;;;;;;;2.90;1.37;;;13.50;99.90;;;;;;6210695;23;20619;-92
2022/06/12 02:41:44;;;;;;;6.87;2.20;;;13.50;99.90;;;;;;6211050;23;20194;-90
2022/06/12 02:44:21;;;;;;;11.80;2.40;;;13.50;99.90;;;;;;6209895;23;20293;-91
2022/06/12 02:46:54;;;;;;;10.70;2.53;;;13.50;99.90;;;;;;6211031;23;20198;-92
2022/06/12 02:49:20;;;;;;;5.37;1.30;;;13.50;99.90;;;;;;6211502;23;20208;-92
2022/06/12 02:51:51;;;;;;;12.77;3.63;;;13.40;99.90;;;;;;6186658;23;20659;-91
2022/06/12 02:54:52;;;;;;;5.90;2.13;;;13.50;99.90;;;;;;6211480;23;20170;-90
2022/06/12 02:57:38;;;;;;;7.13;1.97;;;13.50;99.90;;;;;;6210465;23;20294;-90
2022/06/12 03:00:19;;;;;;;5.93;1.87;;;13.50;99.90;;;;;;6210947;23;20202;-91
2022/06/12 03:03:10;;;;;;;4.43;2.30;;;13.50;99.90;;;;;;6210664;23;20228;-92
2022/06/12 03:05:39;;;;;;;8.63;2.53;;;13.50;99.90;;;;;;6210999;23;20189;-91
2022/06/12 03:08:16;;;;;;;3.67;2.20;;;13.50;99.90;;;;;;6210683;23;20202;-92
2022/06/12 03:10:54;;;;;;;6.83;2.40;;;13.50;99.90;;;;;;6210817;23;20197;-91
2022/06/12 03:13:22;;;;;;;6.60;2.93;;;13.50;99.90;;;;;;6211247;23;20545;-92
2022/06/12 03:16:08;;;;;;;3.10;1.70;;;13.50;99.90;;;;;;6211310;23;20183;-92
2022/06/12 03:18:41;;;;;;;2.77;1.93;;;13.40;99.90;;;;;;6212188;23;20611;-91
2022/06/12 03:21:27;;;;;;;8.30;3.03;;;13.40;99.90;;;;;;6211400;23;20198;-93
2022/06/12 03:24:04;;;;;;;5.73;2.13;;;13.40;99.90;;;;;;6210905;23;20633;-93
2022/06/12 03:26:48;;;;;;;8.33;2.17;;;13.50;99.90;;;;;;6179921;23;20190;-92
2022/06/12 03:29:23;;;;;;;9.60;4.23;;;13.50;99.90;;;;;;6210853;23;20252;-91
2022/06/12 03:32:01;;;;;;;5.60;2.97;;;13.50;99.90;;;;;;6210961;23;20272;-91
2022/06/12 03:34:35;;;;;;;8.53;2.43;;;13.50;99.90;;;;;;6211150;23;20204;-92
2022/06/12 03:37:13;;;;;;;11.03;2.80;;;13.50;99.90;;;;;;6211054;23;20470;-92
2022/06/12 03:39:56;;;;;;;6.57;2.00;;;13.60;99.90;;;;;;6211829;23;20571;-92
2022/06/12 03:42:39;;;;;;;4.57;2.40;;;13.60;99.90;;;;;;6210691;23;20267;-92
2022/06/12 03:45:22;;;;;;;9.73;2.83;;;13.60;99.90;;;;;;6210626;23;20205;-93
2022/06/12 03:47:54;;;;;;;6.53;2.83;;;13.70;99.90;;;;;;6175590;23;20221;-91
2022/06/12 03:50:31;;;;;;;4.23;1.77;;;13.70;99.90;;;;;;6211091;23;20568;-93
2022/06/12 03:53:13;;;;;;;12.20;3.47;;;13.70;99.90;;;;;;6210565;23;20201;-92
2022/06/12 03:58:44;;;;;;;17.53;4.00;;;13.80;99.90;;;;;;6212268;23;20214;-92
2022/06/12 04:01:11;;;;;;;9.00;2.30;;;13.80;99.90;;;;;;6211058;23;20220;-92
2022/06/12 04:03:44;;;;;;;7.60;3.23;;;13.80;99.90;;;;;;6186852;23;20583;-91
2022/06/12 04:06:16;;;;;;;4.67;2.27;;;13.90;99.90;;;;;;6210583;23;20202;-93
2022/06/12 04:08:51;;;;;;;13.47;3.57;;;13.90;99.90;;;;;;6209985;23;20273;-91
2022/06/12 04:11:20;;;;;;;9.63;2.80;;;14.00;99.90;;;;;;6210633;23;20508;-92
2022/06/12 04:13:49;;;;;;;6.40;2.83;;;14.10;99.90;;;;;;6210726;23;20248;-92
2022/06/12 04:16:18;;;;;;;10.63;3.20;;;14.30;99.90;;;;;;6210594;23;20186;-91
2022/06/12 04:18:44;;;;;;;5.57;2.63;;;14.40;99.90;;;;;;6211243;23;20510;-91
2022/06/12 04:21:24;;;;;;;11.37;3.70;;;14.50;99.90;;;;;;6185829;23;20193;-94
2022/06/12 04:24:23;;;;;;;7.97;3.03;;;14.50;99.90;;;;;;6211601;23;20575;-93
2022/06/12 04:27:24;;;;;;;4.87;2.40;;;14.50;99.90;;;;;;6210805;23;20244;-92
2022/06/12 04:29:57;;;;;;;12.87;3.23;;;14.50;99.90;;;;;;6200792;23;20285;-92
2022/06/12 04:32:23;;;;;;;5.30;2.17;;;14.50;99.90;;;;;;6210458;23;20194;-93
2022/06/12 04:34:50;;;;;;;7.37;3.13;;;14.60;99.90;;;;;;6185518;23;20221;-92
2022/06/12 04:37:24;;;;;;;11.47;3.53;;;14.60;99.90;;;;;;6186130;23;20224;-92
2022/06/12 04:39:50;;;;;;;6.07;2.47;;;14.70;99.90;;;;;;6209602;23;20143;-91
2022/06/12 04:42:20;;;;;;;6.50;2.73;;;14.80;99.90;;;;;;6210860;23;20165;-92
2022/06/12 04:44:47;;;;;;;6.83;4.27;;;15.00;99.90;;;;;;6209826;23;20729;-91
2022/06/12 04:47:16;;;;;;;7.30;3.03;;;15.10;99.90;;;;;;6210331;23;20263;-92
2022/06/12 04:49:42;;;;;;;5.70;3.30;;;15.20;99.90;;;;;;6209483;23;20253;-91
2022/06/12 04:52:11;;;;;;;15.33;2.60;;;15.30;99.90;;;;;;6159926;23;20217;-93
2022/06/12 04:54:39;;;;;;;12.93;3.60;;;15.50;99.90;;;;;;6185379;23;20162;-91
2022/06/12 04:57:06;;;;;;;3.83;2.83;;;15.60;99.90;;;;;;6209257;23;20218;-93
2022/06/12 04:59:32;;;;;;;8.73;4.23;;;15.70;99.90;;;;;;6208192;23;20241;-92
2022/06/12 05:01:58;;;;;;;9.80;4.00;;;15.90;99.90;;;;;;6184649;23;20194;-92
2022/06/12 05:04:25;;;;;;;13.93;4.27;;;16.00;99.90;;;;;;6184375;23;20201;-91
2022/06/12 05:06:51;;;;;;;15.67;3.47;;;16.10;99.90;;;;;;6211174;23;20447;-92
2022/06/12 05:09:20;;;;;;;6.60;2.87;;;16.10;99.90;;;;;;6187612;23;20481;-92
2022/06/12 05:11:46;;;;;;;6.27;2.80;;;16.20;99.90;;;;;;6211441;23;20190;-91
2022/06/12 05:14:13;;;;;;;10.77;3.33;;;16.40;99.90;;;;;;6211789;23;20194;-92
2022/06/12 05:16:47;;;;;;;9.03;2.70;;;17.60;99.90;;;;;;6211773;23;20197;-92
2022/06/12 05:19:17;;;;;;;12.33;3.40;;;19.90;99.90;;;;;;6211335;23;20205;-93
2022/06/12 05:21:42;;;;;;;23.13;4.50;;;21.90;99.90;;;;;;6212227;23;20162;-91
2022/06/12 05:24:09;;;;;;;12.43;3.07;;;22.40;99.90;;;;;;6185998;23;20197;-93
2022/06/12 05:26:35;;;;;;;11.80;4.47;;;22.40;99.90;;;;;;6186303;23;20194;-92
2022/06/12 05:29:04;;;;;;;13.30;3.50;;;22.60;99.90;;;;;;6186789;23;20205;-92
2022/06/12 05:31:31;;;;;;;9.80;2.90;;;24.60;99.90;;;;;;6211203;23;20202;-90
2022/06/12 05:33:57;;;;;;;10.53;2.30;;;26.80;99.90;;;;;;6211118;23;20177;-91
2022/06/12 05:36:23;;;;;;;11.33;2.90;;;26.90;99.90;;;;;;6186767;23;20663;-90
2022/06/12 05:38:49;;;;;;;7.67;2.63;;;25.70;99.90;;;;;;6210976;23;20690;-90
2022/06/12 05:41:16;;;;;;;14.87;3.57;;;24.10;99.90;;;;;;6161260;23;20650;-93
2022/06/12 05:43:42;;;;;;;4.73;3.23;;;23.50;99.90;;;;;;6185869;23;20204;-90
2022/06/12 05:46:10;;;;;;;13.97;3.00;;;22.80;99.90;;;;;;6211290;23;20194;-91
2022/06/12 05:48:37;;;;;;;12.53;2.63;;;23.00;99.90;;;;;;6211808;23;20162;-92
2022/06/12 05:51:04;;;;;;;8.03;2.77;;;24.20;99.90;;;;;;6161402;23;20634;-88
2022/06/12 05:53:32;;;;;;;12.30;2.90;;;26.50;99.90;;;;;;6211731;23;20650;-89
2022/06/12 05:55:59;;;;;;;8.00;3.67;;;28.10;99.90;;;;;;6185453;23;20237;-90
2022/06/12 05:58:27;;;;;;;11.40;3.23;;;27.70;99.90;;;;;;6186294;23;20209;-89
2022/06/12 06:00:54;;;;;;;6.00;2.63;;;26.40;99.90;;;;;;6185674;23;20157;-90
2022/06/12 06:03:20;;;;;;;4.93;1.90;;;25.10;99.90;;;;;;6186809;23;20185;-89
2022/06/12 06:05:48;;;;;;;7.23;2.40;;;23.90;99.90;;;;;;6209250;23;20704;-89
2022/06/12 06:08:14;;;;;;;3.90;2.27;;;23.70;99.90;;;;;;6211086;23;20213;-89
2022/06/12 06:10:41;;;;;;;5.87;2.57;;;23.40;99.90;;;;;;6210933;23;20307;-88
2022/06/12 06:13:07;;;;;;;6.63;2.13;;;25.70;99.90;;;;;;6161720;23;20193;-91
2022/06/12 06:15:33;;;;;;;8.70;2.92;;;28.40;99.90;;;;;;6186550;23;20833;-89
2022/06/12 06:18:00;;;;;;;11.27;3.30;;;29.80;99.90;;;;;;6210005;23;20678;-88
2022/06/12 06:20:33;;;;;;;6.20;1.67;;;29.20;99.90;;;;;;6185325;23;20190;-90
2022/06/12 06:22:59;;;;;;;10.82;2.53;;;30.50;99.90;;;;;;6210209;23;20205;-89
2022/06/12 06:25:28;;;;;;;7.18;2.67;;;29.20;99.90;;;;;;6210268;23;20198;-91
2022/06/12 06:27:55;;;;;;;7.35;2.63;;;28.30;99.90;;;;;;6185619;23;20169;-90
2022/06/12 06:30:22;;;;;;;7.53;2.22;;;26.30;99.90;;;;;;6210279;23;20650;-92
2022/06/12 06:32:48;;;;;;;5.30;2.05;;;26.30;99.90;;;;;;6184533;23;20702;-92
2022/06/12 06:35:15;;;;;;;6.63;1.80;;;26.10;99.90;;;;;;6186593;23;20571;-92
2022/06/12 06:37:41;;;;;;;9.63;2.67;;;25.00;99.90;;;;;;6186168;23;20205;-91
2022/06/12 06:40:09;;;;;;;4.38;1.52;;;24.90;99.90;;;;;;6186035;23;20207;-92
2022/06/12 06:42:35;;;;;;;8.50;2.17;;;25.90;99.90;;;;;;6212729;23;20158;-94
2022/06/12 06:47:45;;;;;;;4.85;2.40;;;28.20;99.90;;;;;;6189519;23;20579;-90
2022/06/12 06:50:14;;;;;;;5.80;1.83;;;29.80;99.90;;;;;;6184814;23;20245;-92
2022/06/12 06:52:40;;;;;;;5.78;2.40;;;30.10;99.90;;;;;;6209815;23;20281;-89
2022/06/12 06:55:07;;;;;;;8.10;2.55;;;31.00;99.90;;;;;;6184918;23;20205;-90
2022/06/12 06:57:41;;;;;;;5.63;1.90;;;32.30;99.90;;;;;;6210454;23;20200;-89
2022/06/12 07:00:10;;;;;;;4.05;1.55;;;30.90;99.90;;;;;;6209335;23;20256;-90
2022/06/12 07:02:36;;;;;;;8.93;1.92;;;30.50;99.90;;;;;;6209681;23;20217;-91
2022/06/12 07:05:02;;;;;;;2.63;1.30;;;31.30;99.90;;;;;;6209672;23;20202;-91
2022/06/12 07:07:28;;;;;;;5.55;1.67;;;29.90;99.90;;;;;;6184107;23;20204;-90
2022/06/12 07:09:54;;;;;;;5.88;1.50;;;28.80;99.90;;;;;;6184605;23;20253;-90
2022/06/12 07:12:20;;;;;;;2.17;1.40;;;28.50;99.90;;;;;;6160698;23;20537;-90
2022/06/12 07:14:46;;;;;;;7.15;1.80;;;27.90;99.90;;;;;;6184793;23;20194;-90
2022/06/12 07:17:11;;;;;;;3.13;1.38;;;28.00;99.90;;;;;;6159860;23;20272;-89
2022/06/12 07:19:38;;;;;;;4.25;1.35;;;27.20;99.90;;;;;;6184273;23;20654;-90
2022/06/12 07:22:05;;;;;;;6.70;1.63;;;27.10;99.90;;;;;;6209184;23;20237;-90
2022/06/12 07:24:31;;;;;;;2.97;1.77;;;29.00;99.90;;;;;;6185343;23;20166;-91
2022/06/12 07:26:57;;;;;;;8.10;1.75;;;30.00;99.90;;;;;;6184379;23;20527;-89
2022/06/12 07:29:23;;;;;;;4.22;1.40;;;28.40;99.90;;;;;;6209540;23;20197;-90
2022/06/12 07:31:49;;;;;;;3.22;1.27;;;27.40;99.90;;;;;;6184345;23;20232;-90
2022/06/12 07:34:16;;;;;;;1.77;1.10;;;28.00;99.90;;;;;;6160182;23;20709;-90
2022/06/12 07:36:45;;;;;;;2.65;1.45;;;28.60;99.90;;;;;;6185107;23;20245;-90
2022/06/12 07:39:16;;;;;;;4.25;1.75;;;29.50;99.90;;;;;;6184905;23;20224;-89
2022/06/12 07:41:43;;;;;;;5.00;1.60;;;29.70;99.90;;;;;;6209550;23;20205;-89
2022/06/12 07:44:10;;;;;;;5.03;2.22;;;27.70;99.90;;;;;;6209310;23;20520;-89
2022/06/12 07:46:36;;;;;;;4.25;1.88;;;27.90;99.90;;;;;;6184772;23;20200;-88
2022/06/12 07:49:02;;;;;;;4.60;1.55;;;28.10;99.90;;;;;;6184444;23;20194;-89
2022/06/12 07:51:31;;;;;;;2.38;1.20;;;30.00;99.90;;;;;;6210139;23;20162;-89
2022/06/12 07:53:57;;;;;;;5.20;1.73;;;29.10;99.90;;;;;;6183813;23;20653;-90
2022/06/12 07:56:24;;;;;;;5.03;1.77;;;28.60;99.90;;;;;;6184256;23;20210;-89
2022/06/12 07:58:51;;;;;;;2.50;1.02;;;28.90;99.90;;;;;;6184530;23;20205;-89
2022/06/12 08:01:19;;;;;;;2.33;1.58;;;28.80;99.90;;;;;;6184289;23;20204;-89
2022/06/12 08:03:45;;;;;;;5.40;1.75;;;28.10;99.90;;;;;;6210309;23;20583;-86
2022/06/12 08:06:11;;;;;;;6.10;1.40;;;29.00;99.90;;;;;;6209187;23;20206;-88
2022/06/12 08:08:37;;;;;;;3.28;1.50;;;29.50;99.90;;;;;;6183749;23;20200;-89
2022/06/12 08:11:04;;;;;;;3.47;1.38;;;29.90;99.90;;;;;;6184496;23;20650;-88
2022/06/12 08:13:30;;;;;;;5.22;2.00;;;30.80;99.90;;;;;;6208935;23;20197;-89
2022/06/12 08:15:57;;;;;;;3.63;1.48;;;30.70;99.90;;;;;;6208459;23;20158;-90
2022/06/12 08:18:23;;;;;;;4.60;1.70;;;27.30;99.90;;;;;;6209379;23;20207;-89
2022/06/12 08:20:53;;;;;;;2.88;1.35;;;26.50;99.90;;;;;;6208933;23;20631;-89
2022/06/12 08:23:34;;;;;;;4.22;1.73;;;26.80;99.90;;;;;;6208544;23;20201;-91
2022/06/12 08:26:08;;;;;;;5.13;1.75;;;25.90;99.90;;;;;;6209067;23;20194;-89
2022/06/12 08:28:44;;;;;;;2.03;1.60;;;25.50;99.90;;;;;;6208878;23;20201;-88
2022/06/12 08:31:14;;;;;;;5.85;1.50;;;25.30;99.90;;;;;;6209149;23;20185;-88
2022/06/12 08:33:42;;;;;;;1.45;1.23;;;25.10;99.90;;;;;;6209860;23;20602;-89
2022/06/12 08:36:11;;;;;;;1.75;1.30;;;25.20;99.90;;;;;;6209083;23;20653;-88
2022/06/12 08:38:38;;;;;;;3.63;1.30;;;24.70;99.90;;;;;;6208602;23;20256;-88
2022/06/12 08:41:08;;;;;;;2.15;1.48;;;24.20;99.90;;;;;;6183639;23;20194;-88
2022/06/12 08:43:50;;;;;;;4.82;2.08;;;25.50;99.90;;;;;;6210163;23;20276;-87
2022/06/12 08:46:41;;;;;;;4.32;1.45;;;25.60;99.90;;;;;;6208872;23;20527;-89
2022/06/12 08:49:34;;;;;;;5.25;1.48;;;25.90;99.90;;;;;;6209085;23;20204;-88
2022/06/12 08:52:22;;;;;;;4.85;1.83;;;25.60;99.90;;;;;;6173553;23;20162;-89
2022/06/12 08:55:16;;;;;;;4.93;1.38;;;25.60;99.90;;;;;;6209995;23;20195;-88
2022/06/12 08:57:57;;;;;;;9.23;1.90;;;25.80;99.90;;;;;;6209257;23;20155;-89
2022/06/12 09:00:28;;;;;;;2.97;1.83;;;25.70;99.90;;;;;;6210519;23;20455;-89
2022/06/12 09:02:55;;;;;;;2.92;1.65;;;26.00;99.90;;;;;;6208293;23;20272;-88
2022/06/12 09:05:26;;;;;;;5.43;1.98;;;27.20;99.90;;;;;;6158856;23;20190;-90
2022/06/12 09:08:10;;;;;;;4.53;2.10;;;28.60;99.90;;;;;;6208641;23;20201;-89
2022/06/12 09:10:50;;;;;;;5.30;2.13;;;27.20;99.90;;;;;;6208668;23;20482;-88
2022/06/12 09:13:29;;;;;;;2.97;1.63;;;27.40;99.90;;;;;;6209770;23;20190;-89
2022/06/12 09:16:19;;;;;;;1.73;1.50;;;27.70;99.90;;;;;;6210588;23;20162;-89
2022/06/12 09:19:03;;;;;;;4.00;1.40;;;27.80;99.90;;;;;;6209600;23;20204;-89
2022/06/12 09:21:35;;;;;;;4.47;1.77;;;27.30;99.90;;;;;;6209009;23;20507;-88
2022/06/12 09:24:44;;;;;;;3.50;1.73;;;27.00;99.90;;;;;;6208389;23;20198;-90
2022/06/12 09:27:25;;;;;;;6.18;1.67;;;28.10;99.90;;;;;;6183403;23;20197;-88
2022/06/12 09:30:18;;;;;;;9.20;2.15;;;27.10;99.90;;;;;;6207973;23;20232;-89
2022/06/12 09:33:12;;;;;;;4.38;1.90;;;27.30;99.90;;;;;;6208099;23;20647;-88
2022/06/12 09:36:09;;;;;;;4.53;1.80;;;26.80;99.90;;;;;;6207999;23;20274;-89
2022/06/12 09:39:03;;;;;;;8.75;2.25;;;26.60;99.90;;;;;;6208501;23;20589;-86
2022/06/12 09:41:53;;;;;;;4.15;1.65;;;25.90;99.90;;;;;;6209665;23;20190;-87
2022/06/12 09:44:28;;;;;;;3.33;1.88;;;26.00;99.90;;;;;;6207828;23;20200;-89
2022/06/12 09:47:12;;;;;;;8.00;2.38;;;25.90;99.90;;;;;;6207753;23;20197;-88
2022/06/12 09:49:41;;;;;;;4.88;1.77;;;26.20;99.90;;;;;;6208074;23;20201;-89
2022/06/12 09:52:22;;;;;;;5.53;1.73;;;25.60;99.90;;;;;;6210039;23;20202;-88
2022/06/12 09:54:54;;;;;;;3.85;2.10;;;24.80;99.90;;;;;;6210828;23;20564;-87
2022/06/12 09:57:29;;;;;;;5.28;2.00;;;26.00;99.90;;;;;;6210529;23;20538;-87
2022/06/12 10:00:05;;;;;;;4.90;1.60;;;25.10;99.90;;;;;;6210229;23;20201;-88
2022/06/12 10:03:03;;;;;;;2.10;1.90;;;24.80;99.90;;;;;;6210213;23;20194;-88
2022/06/12 10:05:44;;;;;;;4.60;1.75;;;24.40;99.90;;;;;;6210146;23;20643;-88
2022/06/12 10:08:30;;;;;;;2.45;1.58;;;25.30;99.90;;;;;;6211655;23;20337;-86
2022/06/12 10:11:18;;;;;;;4.72;1.75;;;25.20;99.90;;;;;;6209369;23;20234;-87
2022/06/12 10:13:51;;;;;;;3.45;1.65;;;24.50;99.90;;;;;;6209645;23;20205;-87
2022/06/12 10:16:37;;;;;;;5.22;2.28;;;25.20;99.90;;;;;;6209951;23;20204;-87
2022/06/12 10:19:10;;;;;;;3.25;1.35;;;25.80;99.90;;;;;;6209782;23;20178;-87
2022/06/12 10:21:40;;;;;;;5.07;1.92;;;24.30;99.90;;;;;;6210750;23;20147;-87
2022/06/12 10:24:07;;;;;;;3.95;1.80;;;24.30;99.90;;;;;;6209634;23;20272;-88
2022/06/12 10:26:34;;;;;;;6.03;2.75;;;24.50;99.90;;;;;;6185020;23;20198;-90
2022/06/12 10:29:15;;;;;;;3.42;2.00;;;25.00;99.90;;;;;;6160029;23;20220;-90
2022/06/12 10:31:49;;;;;;;3.90;1.55;;;25.80;99.90;;;;;;6211475;23;20205;-89
2022/06/12 10:34:22;;;;;;;2.33;1.85;;;26.20;99.90;;;;;;6210124;23;20247;-88
2022/06/12 10:36:47;;;;;;;3.35;1.60;;;23.90;99.90;;;;;;6210022;23;20525;-88
2022/06/12 10:39:16;;;;;;;7.30;1.40;;;24.20;99.90;;;;;;6185023;23;20324;-87
2022/06/12 10:41:47;;;;;;;3.75;1.63;;;24.10;99.90;;;;;;6210275;23;20206;-88
2022/06/12 10:44:31;;;;;;;4.68;1.90;;;24.00;99.90;;;;;;6210211;23;20194;-88
2022/06/12 10:47:20;;;;;;;5.60;2.10;;;24.40;99.90;;;;;;6210370;23;20249;-88
2022/06/12 10:49:47;;;;;;;4.10;2.10;;;25.20;99.90;;;;;;6209981;23;20193;-90
2022/06/12 10:52:20;;;;;;;4.75;2.33;;;25.10;99.90;;;;;;6208598;23;20195;-89
2022/06/12 10:54:51;;;;;;;4.68;1.85;;;24.60;99.90;;;;;;6209033;23;20232;-88
2022/06/12 10:57:32;;;;;;;4.10;1.70;;;24.00;99.90;;;;;;6209622;23;20221;-87
2022/06/12 11:00:01;;;;;;;4.22;2.15;;;23.90;99.90;;;;;;6211177;23;20714;-88
2022/06/12 11:02:36;;;;;;;7.90;1.90;;;24.00;99.90;;;;;;6209486;23;20201;-88
2022/06/12 11:05:23;;;;;;;5.93;2.03;;;23.70;99.90;;;;;;6209347;23;20557;-89
2022/06/12 11:08:04;;;;;;;4.30;1.73;;;23.00;99.90;;;;;;6209460;23;20854;-90
2022/06/12 11:10:38;;;;;;;7.75;1.90;;;22.70;99.90;;;;;;6210409;23;20217;-90
2022/06/12 11:13:16;;;;;;;5.97;1.83;;;22.80;99.90;;;;;;6209916;23;20169;-89
2022/06/12 11:16:06;;;;;;;4.65;1.73;;;22.70;99.90;;;;;;6210429;23;20575;-90
2022/06/12 11:19:11;;;;;;;3.80;1.90;;;23.00;99.90;;;;;;6210310;23;21120;-90
2022/06/12 11:21:46;;;;;;;4.22;2.30;;;23.20;99.90;;;;;;6187485;23;20186;-89
2022/06/12 11:24:43;;;;;;;4.07;1.80;;;23.30;99.90;;;;;;6209452;23;20193;-90
2022/06/12 11:27:12;;;;;;;4.82;1.85;;;23.50;99.90;;;;;;6152643;23;20208;-90
2022/06/12 11:29:53;;;;;;;3.88;2.10;;;22.50;99.90;;;;;;6210018;23;20202;-90
2022/06/12 11:32:28;;;;;;;5.40;2.05;;;21.90;99.90;;;;;;6209308;23;20277;-88
2022/06/12 11:35:08;;;;;;;5.03;1.73;;;22.10;99.90;;;;;;6210174;23;20679;-90
2022/06/12 11:38:08;;;;;;;7.78;1.73;;;22.40;99.90;;;;;;6210249;23;20221;-90
2022/06/12 11:40:40;;;;;;;6.03;1.90;;;22.00;99.90;;;;;;6210287;23;20194;-91
2022/06/12 11:43:30;;;;;;;2.85;1.80;;;22.10;99.90;;;;;;6209737;23;20158;-91
2022/06/12 11:46:08;;;;;;;3.78;1.77;;;22.10;99.90;;;;;;6210356;23;20594;-89
2022/06/12 11:48:40;;;;;;;5.28;2.03;;;21.50;99.90;;;;;;6209872;23;20154;-90
2022/06/12 11:51:16;;;;;;;1.73;1.63;;;21.50;99.90;;;;;;6209990;23;20508;-90
2022/06/12 11:54:09;;;;;;;2.85;1.80;;;21.40;99.90;;;;;;6208803;23;20205;-89
2022/06/12 11:56:56;;;;;;;6.68;1.33;;;21.50;99.90;;;;;;6210011;23;20217;-90
2022/06/12 11:59:43;;;;;;;6.23;1.80;;;21.60;99.90;;;;;;6209589;23;20260;-90
2022/06/12 12:02:17;;;;;;;8.37;2.77;;;21.10;99.90;;;;;;6209082;23;20213;-90
2022/06/12 12:05:02;;;;;;;3.53;1.73;;;21.20;99.90;;;;;;6209652;23;20201;-90
2022/06/12 12:07:53;;;;;;;6.30;1.87;;;21.30;99.90;;;;;;6209636;23;20246;-90
2022/06/12 12:10:38;;;;;;;3.40;2.33;;;21.10;99.90;;;;;;6209277;23;20193;-89
2022/06/12 12:13:11;;;;;;;1.63;1.50;;;21.40;99.90;;;;;;6209871;23;20418;-89
2022/06/12 12:15:51;;;;;;;5.93;2.17;;;21.20;99.90;;;;;;6186920;23;20484;-92
2022/06/12 12:18:31;;;;;;;7.90;2.80;;;20.30;99.90;;;;;;6210419;23;20232;-91
2022/06/12 12:20:58;;;;;;;5.17;2.07;;;20.60;99.90;;;;;;6210678;23;20703;-91
2022/06/12 12:23:28;;;;;;;5.47;2.30;;;21.20;99.90;;;;;;6184850;23;20205;-91
2022/06/12 12:26:31;;;;;;;3.70;1.77;;;21.20;99.90;;;;;;6209226;23;20206;-90
2022/06/12 12:29:02;;;;;;;2.90;2.07;;;20.50;99.90;;;;;;6214813;23;20272;-93
2022/06/12 12:31:29;;;;;;;4.13;1.57;;;20.60;99.90;;;;;;6212422;23;20248;-92
2022/06/12 12:33:57;;;;;;;3.60;1.20;;;20.60;99.90;;;;;;6212203;23;20157;-91
2022/06/12 12:42:29;;;;;;;6.23;2.33;;;20.90;99.90;;;;;;6213311;23;20681;-92
2022/06/12 12:45:08;;;;;;;3.43;2.70;;;21.10;99.90;;;;;;6211178;23;20202;-91
2022/06/12 12:47:34;;;;;;;3.57;1.50;;;20.80;99.90;;;;;;6209973;23;20194;-91
2022/06/12 12:50:09;;;;;;;3.87;2.57;;;20.20;99.90;;;;;;6160373;23;20669;-92
2022/06/12 12:52:56;;;;;;;4.03;2.50;;;20.00;99.90;;;;;;6209539;23;20217;-92
2022/06/12 12:55:33;;;;;;;2.40;1.20;;;20.10;99.90;;;;;;6209426;23;20194;-92
2022/06/12 12:58:20;;;;;;;4.70;2.23;;;19.80;99.90;;;;;;6209356;23;20181;-93
2022/06/12 13:00:47;;;;;;;4.50;2.10;;;19.90;99.90;;;;;;6208950;23;20603;-92
2022/06/12 13:03:30;;;;;;;7.77;2.40;;;20.40;99.90;;;;;;6210663;23;20192;-91
2022/06/12 13:06:34;;;;;;;4.50;2.57;;;20.70;99.90;;;;;;6210483;23;20205;-91
2022/06/12 13:09:13;;;;;;;6.43;2.20;;;20.50;99.90;;;;;;6209975;23;20228;-91
2022/06/12 13:12:12;;;;;;;5.60;2.30;;;20.30;99.90;;;;;;6212641;23;20978;-91
2022/06/12 13:15:04;;;;;;;7.93;3.03;;;19.90;99.90;;;;;;6183338;23;20221;-92
2022/06/12 13:18:03;;;;;;;4.97;2.33;;;20.20;99.90;;;;;;6222714;23;20198;-93
2022/06/12 13:20:43;;;;;;;11.20;2.67;;;20.50;99.90;;;;;;6215996;23;20153;-92
2022/06/12 13:23:42;;;;;;;4.07;2.20;;;20.10;99.90;;;;;;6213471;23;20193;-92
2022/06/12 13:26:13;;;;;;;5.60;2.17;;;20.20;99.90;;;;;;6211850;23;20595;-90
2022/06/12 13:28:40;;;;;;;7.57;2.23;;;20.20;99.90;;;;;;6212446;23;20200;-94
2022/06/12 13:31:18;;;;;;;6.97;3.10;;;20.20;99.90;;;;;;6213400;23;20658;-92
2022/06/12 13:34:00;;;;;;;6.93;2.30;;;20.10;99.90;;;;;;6217117;23;20193;-92
2022/06/12 13:36:41;;;;;;;3.57;1.97;;;20.00;99.90;;;;;;6217170;23;20194;-91
2022/06/12 13:39:30;;;;;;;5.60;1.80;;;19.90;99.90;;;;;;6210629;23;20208;-91
2022/06/12 13:42:10;;;;;;;6.73;2.53;;;19.90;99.90;;;;;;6211220;23;20173;-91